Time;durP1;ratioP1;P1;durP2;ratioP2;P2;SDS_P1;SDS_P2;PMS_P1;PMS_P2;Temp;Humidity;BMP_temperature;BMP_pressure;BME280_temperature;BME280_humidity;BME280_pressure;Samples;Min_cycle;Max_cycle;Signal;HPM_P1;HPM_P2
2022/08/21 00:00:16;;;;;;;5.60;3.00;;;17.50;92.50;;;;;;6247754;23;20385;-43
2022/08/21 00:02:49;;;;;;;3.80;3.03;;;17.50;92.50;;;;;;6249128;23;20135;-45
2022/08/21 00:05:15;;;;;;;3.93;3.07;;;17.50;92.50;;;;;;6246811;23;20379;-45
2022/08/21 00:07:41;;;;;;;4.47;3.57;;;17.40;92.40;;;;;;6245253;23;20372;-44
2022/08/21 00:10:07;;;;;;;3.30;3.00;;;17.40;92.60;;;;;;6219871;23;20407;-42
2022/08/21 00:12:32;;;;;;;6.60;3.37;;;17.30;92.70;;;;;;6246424;23;20259;-43
2022/08/21 00:14:58;;;;;;;3.87;3.47;;;17.30;92.80;;;;;;6246267;23;20396;-42
2022/08/21 00:17:24;;;;;;;3.50;3.00;;;17.30;93.30;;;;;;6250820;23;20198;-46
2022/08/21 00:19:49;;;;;;;4.03;3.63;;;17.30;93.10;;;;;;6250647;23;20189;-42
2022/08/21 00:22:15;;;;;;;3.37;3.07;;;17.20;93.20;;;;;;6250729;23;20526;-44
2022/08/21 00:24:41;;;;;;;6.07;3.67;;;17.20;93.20;;;;;;6249475;23;20182;-45
2022/08/21 00:27:07;;;;;;;4.03;3.63;;;17.20;93.30;;;;;;6224183;23;20385;-49
2022/08/21 00:29:33;;;;;;;3.40;3.10;;;17.10;93.30;;;;;;6249274;23;20277;-43
2022/08/21 00:31:58;;;;;;;5.33;4.10;;;17.10;93.40;;;;;;6249158;23;20522;-42
2022/08/21 00:34:24;;;;;;;4.40;3.50;;;17.10;93.30;;;;;;6249552;23;20221;-42
2022/08/21 00:36:50;;;;;;;4.43;3.80;;;17.10;93.50;;;;;;6251235;23;20159;-48
2022/08/21 00:39:15;;;;;;;3.90;2.93;;;17.10;93.40;;;;;;6250365;23;20208;-44
2022/08/21 00:41:42;;;;;;;3.37;3.07;;;17.00;93.40;;;;;;6224162;23;20187;-42
2022/08/21 00:44:10;;;;;;;3.90;3.50;;;17.00;93.50;;;;;;6250828;23;20134;-44
2022/08/21 00:46:37;;;;;;;3.80;3.40;;;17.00;93.50;;;;;;6250227;23;20392;-44
2022/08/21 00:49:05;;;;;;;3.80;3.10;;;17.00;93.50;;;;;;6249857;23;20459;-45
2022/08/21 00:51:42;;;;;;;5.63;4.30;;;17.00;93.40;;;;;;6247915;23;20699;-48
2022/08/21 00:54:09;;;;;;;4.83;3.40;;;17.00;93.50;;;;;;6247722;23;20663;-46
2022/08/21 00:56:36;;;;;;;3.47;3.10;;;16.90;93.50;;;;;;6248387;23;20398;-48
2022/08/21 00:59:02;;;;;;;4.87;4.00;;;16.90;93.70;;;;;;6246742;23;20466;-45
2022/08/21 01:01:28;;;;;;;7.40;3.20;;;16.90;93.70;;;;;;6247566;23;20398;-42
2022/08/21 01:03:54;;;;;;;4.27;3.23;;;16.90;93.80;;;;;;6248748;23;20361;-44
2022/08/21 01:06:20;;;;;;;4.33;3.93;;;16.80;93.80;;;;;;6248511;23;20149;-43
2022/08/21 01:08:46;;;;;;;3.50;3.20;;;16.80;93.80;;;;;;6248670;23;20143;-43
2022/08/21 01:11:12;;;;;;;4.83;3.00;;;16.80;93.90;;;;;;6250287;23;20474;-44
2022/08/21 01:13:45;;;;;;;5.03;3.40;;;16.80;94.00;;;;;;6248379;23;20468;-45
2022/08/21 01:16:14;;;;;;;4.57;3.60;;;16.70;94.00;;;;;;6249107;23;20420;-43
2022/08/21 01:18:39;;;;;;;2.93;2.63;;;16.70;94.10;;;;;;6247267;23;20406;-44
2022/08/21 01:21:11;;;;;;;4.37;3.80;;;16.70;94.00;;;;;;6249155;23;20386;-44
2022/08/21 01:23:39;;;;;;;3.83;3.50;;;16.70;94.10;;;;;;6249132;23;20353;-45
2022/08/21 01:26:06;;;;;;;5.10;3.80;;;16.70;94.20;;;;;;6247351;23;20786;-46
2022/08/21 01:28:37;;;;;;;4.67;3.50;;;16.70;94.20;;;;;;6248523;23;20385;-42
2022/08/21 01:31:05;;;;;;;6.27;3.50;;;16.70;94.20;;;;;;6248916;23;20363;-43
2022/08/21 01:33:31;;;;;;;4.10;3.60;;;16.60;94.10;;;;;;6249135;23;20880;-43
2022/08/21 01:35:57;;;;;;;4.23;3.40;;;16.60;94.20;;;;;;6248415;23;20362;-43
2022/08/21 01:38:22;;;;;;;4.40;3.00;;;16.60;94.30;;;;;;6247871;23;20765;-43
2022/08/21 01:40:48;;;;;;;5.70;3.23;;;16.60;94.30;;;;;;6247519;23;20143;-43
2022/08/21 01:43:14;;;;;;;4.37;3.47;;;16.50;94.30;;;;;;6250153;22;20215;-45
2022/08/21 01:45:39;;;;;;;4.40;3.00;;;16.50;94.40;;;;;;6250048;23;20133;-44
2022/08/21 01:48:05;;;;;;;3.80;2.87;;;16.50;94.40;;;;;;6223201;23;20166;-43
2022/08/21 01:50:31;;;;;;;3.97;3.30;;;16.50;94.70;;;;;;6249616;23;20157;-44
2022/08/21 01:52:56;;;;;;;6.23;3.90;;;16.50;94.50;;;;;;6248323;23;20154;-45
2022/08/21 01:55:22;;;;;;;2.97;2.67;;;16.50;94.40;;;;;;6245372;23;20166;-42
2022/08/21 01:58:25;;;;;;;3.57;3.27;;;16.50;94.40;;;;;;6246437;23;20151;-42
2022/08/21 02:00:51;;;;;;;3.97;2.93;;;16.50;94.40;;;;;;6244920;23;20386;-42
2022/08/21 02:03:17;;;;;;;3.60;3.00;;;16.40;94.40;;;;;;6245115;23;20349;-42
2022/08/21 02:05:42;;;;;;;3.20;2.73;;;16.40;94.50;;;;;;6246820;23;20178;-43
2022/08/21 02:08:08;;;;;;;3.40;3.10;;;16.40;94.40;;;;;;6246743;23;20139;-50
2022/08/21 02:10:34;;;;;;;3.30;2.97;;;16.40;94.40;;;;;;6246666;23;20154;-45
2022/08/21 02:13:00;;;;;;;4.67;3.23;;;16.40;94.40;;;;;;6248245;23;20150;-43
2022/08/21 02:15:28;;;;;;;5.17;3.63;;;16.40;94.50;;;;;;6248277;23;20231;-44
2022/08/21 02:17:56;;;;;;;3.20;2.77;;;16.30;94.50;;;;;;6248070;23;20639;-44
2022/08/21 02:20:25;;;;;;;3.70;2.80;;;16.30;94.60;;;;;;6246896;23;20388;-45
2022/08/21 02:22:51;;;;;;;4.10;3.70;;;16.30;94.70;;;;;;6246962;23;20375;-43
2022/08/21 02:25:18;;;;;;;6.87;3.20;;;16.30;94.70;;;;;;6249139;23;20431;-45
2022/08/21 02:27:47;;;;;;;4.80;3.67;;;16.30;94.70;;;;;;6249706;23;20127;-44
2022/08/21 02:30:20;;;;;;;4.60;3.63;;;16.20;94.80;;;;;;6248964;23;20443;-43
2022/08/21 02:32:46;;;;;;;5.47;3.40;;;16.20;94.90;;;;;;6249761;23;20504;-44
2022/08/21 02:35:12;;;;;;;4.90;4.23;;;16.20;94.90;;;;;;6248429;23;20751;-44
2022/08/21 02:37:53;;;;;;;3.90;3.00;;;16.20;94.80;;;;;;6249830;23;20165;-42
2022/08/21 02:40:21;;;;;;;3.97;3.27;;;16.10;94.70;;;;;;6248562;23;20406;-44
2022/08/21 02:42:47;;;;;;;4.10;3.37;;;16.10;94.70;;;;;;6248234;23;20386;-46
2022/08/21 02:45:13;;;;;;;3.40;3.10;;;16.10;94.90;;;;;;6248271;23;20411;-42
2022/08/21 02:47:40;;;;;;;4.07;3.30;;;16.10;95.30;;;;;;6247074;23;20552;-48
2022/08/21 02:50:07;;;;;;;3.33;3.00;;;16.10;94.90;;;;;;6248301;23;20358;-43
2022/08/21 02:52:33;;;;;;;3.67;3.13;;;16.10;94.90;;;;;;6249682;23;20479;-43
2022/08/21 02:54:59;;;;;;;4.07;3.30;;;16.10;95.00;;;;;;6248560;23;20645;-48
2022/08/21 02:57:24;;;;;;;4.03;3.50;;;16.10;94.90;;;;;;6247764;23;20381;-43
2022/08/21 02:59:50;;;;;;;3.80;2.80;;;16.00;94.90;;;;;;6247965;23;20205;-43
2022/08/21 03:02:16;;;;;;;6.00;3.63;;;16.00;95.00;;;;;;6247979;23;20167;-47
2022/08/21 03:04:41;;;;;;;3.57;3.10;;;16.00;95.10;;;;;;6246900;23;20180;-46
2022/08/21 03:07:07;;;;;;;5.03;3.30;;;15.90;95.10;;;;;;6246618;23;20150;-49
2022/08/21 03:09:33;;;;;;;3.53;3.23;;;15.90;95.10;;;;;;6246437;23;20418;-44
2022/08/21 03:11:58;;;;;;;3.33;3.03;;;15.90;95.20;;;;;;6247305;23;20170;-44
2022/08/21 03:14:24;;;;;;;3.73;3.43;;;15.90;95.20;;;;;;6248872;23;20136;-44
2022/08/21 03:16:49;;;;;;;3.03;2.73;;;15.90;95.20;;;;;;6249276;23;20165;-44
2022/08/21 03:19:15;;;;;;;5.87;4.60;;;15.90;95.20;;;;;;6248533;23;20170;-44
2022/08/21 03:21:41;;;;;;;4.67;3.90;;;15.90;95.10;;;;;;6248334;23;20280;-42
2022/08/21 03:24:07;;;;;;;3.57;3.20;;;15.80;95.10;;;;;;6248834;23;20353;-42
2022/08/21 03:26:32;;;;;;;4.47;3.23;;;15.80;95.20;;;;;;6248519;23;20552;-41
2022/08/21 03:28:58;;;;;;;3.00;2.80;;;15.80;95.20;;;;;;6247702;23;20203;-43
2022/08/21 03:31:28;;;;;;;3.50;3.20;;;15.80;95.30;;;;;;6245605;23;20380;-46
2022/08/21 03:33:55;;;;;;;3.50;3.20;;;15.80;95.40;;;;;;6245140;23;20272;-46
2022/08/21 03:36:20;;;;;;;4.00;3.70;;;15.80;95.40;;;;;;6246536;23;20389;-43
2022/08/21 03:38:46;;;;;;;4.83;3.40;;;15.80;95.40;;;;;;6246347;23;20497;-48
2022/08/21 03:41:12;;;;;;;3.63;3.20;;;15.70;95.30;;;;;;6244516;23;20576;-43
2022/08/21 03:43:38;;;;;;;3.83;3.00;;;15.70;95.30;;;;;;6245812;23;20135;-44
2022/08/21 03:46:05;;;;;;;4.87;3.30;;;15.70;95.40;;;;;;6246322;23;20406;-47
2022/08/21 03:48:31;;;;;;;3.80;3.30;;;15.70;95.40;;;;;;6246622;23;20373;-47
2022/08/21 03:50:57;;;;;;;6.00;3.30;;;15.70;95.40;;;;;;6247081;23;20450;-44
2022/08/21 03:53:23;;;;;;;6.80;3.43;;;15.60;95.30;;;;;;6246430;23;20362;-44
2022/08/21 03:55:50;;;;;;;3.60;3.30;;;15.60;95.40;;;;;;6246851;23;20597;-49
2022/08/21 03:58:19;;;;;;;6.70;3.50;;;15.60;95.50;;;;;;6247540;23;20349;-44
2022/08/21 04:00:47;;;;;;;4.33;3.93;;;15.60;95.50;;;;;;6248180;23;20391;-41
2022/08/21 04:03:12;;;;;;;3.67;3.30;;;15.60;95.60;;;;;;6246984;23;20423;-44
2022/08/21 04:05:38;;;;;;;4.20;3.30;;;15.60;95.60;;;;;;6248801;23;20390;-43
2022/08/21 04:08:05;;;;;;;4.80;3.27;;;15.60;95.50;;;;;;6248643;23;20131;-43
2022/08/21 04:10:34;;;;;;;2.60;2.40;;;15.60;95.60;;;;;;6248984;23;20158;-43
2022/08/21 04:12:59;;;;;;;4.77;3.00;;;15.60;95.60;;;;;;6248859;23;20419;-42
2022/08/21 04:15:25;;;;;;;5.30;3.20;;;15.60;95.50;;;;;;6247652;23;20365;-41
2022/08/21 04:17:52;;;;;;;6.40;4.13;;;15.60;95.50;;;;;;6248170;23;20414;-42
2022/08/21 04:20:19;;;;;;;3.83;3.43;;;15.50;95.50;;;;;;6246721;23;20378;-44
2022/08/21 04:22:45;;;;;;;4.23;3.10;;;15.50;95.50;;;;;;6247485;23;20357;-43
2022/08/21 04:25:12;;;;;;;3.33;2.93;;;15.50;95.50;;;;;;6247097;23;20356;-46
2022/08/21 04:27:39;;;;;;;3.67;3.37;;;15.50;95.50;;;;;;6248501;23;20372;-44
2022/08/21 04:30:06;;;;;;;5.03;3.80;;;15.50;95.40;;;;;;6248193;23;20360;-40
2022/08/21 04:32:32;;;;;;;3.53;3.00;;;15.50;95.30;;;;;;6247034;23;20483;-44
2022/08/21 04:35:04;;;;;;;4.27;3.13;;;15.50;95.30;;;;;;6246269;23;20425;-43
2022/08/21 04:37:30;;;;;;;4.47;3.07;;;15.60;95.20;;;;;;6247837;22;20223;-43
2022/08/21 04:39:58;;;;;;;4.03;3.40;;;15.70;95.10;;;;;;6246086;23;20428;-43
2022/08/21 04:42:24;;;;;;;3.70;3.40;;;15.80;95.00;;;;;;6245671;23;20776;-43
2022/08/21 04:44:50;;;;;;;3.50;3.20;;;15.80;94.80;;;;;;6245171;23;20436;-45
2022/08/21 04:47:16;;;;;;;3.53;3.10;;;15.90;94.70;;;;;;6247153;23;20377;-44
2022/08/21 04:49:43;;;;;;;4.10;3.27;;;16.00;94.60;;;;;;6247018;23;20439;-43
2022/08/21 04:52:09;;;;;;;3.47;3.03;;;16.00;94.40;;;;;;6246169;23;20796;-44
2022/08/21 04:54:34;;;;;;;4.13;3.50;;;16.10;94.30;;;;;;6246815;23;20380;-43
2022/08/21 04:57:05;;;;;;;6.20;3.23;;;16.10;94.20;;;;;;6247416;23;20447;-43
2022/08/21 04:59:35;;;;;;;4.20;3.60;;;16.10;94.10;;;;;;6247478;23;20186;-44
2022/08/21 05:02:02;;;;;;;3.70;3.30;;;16.20;94.00;;;;;;6246502;23;20349;-44
2022/08/21 05:04:30;;;;;;;3.97;3.57;;;16.20;94.00;;;;;;6245677;23;20641;-43
2022/08/21 05:06:59;;;;;;;3.77;3.40;;;16.20;93.80;;;;;;6246001;23;20353;-43
2022/08/21 05:09:25;;;;;;;3.80;3.37;;;16.20;93.70;;;;;;6248070;23;20782;-47
2022/08/21 05:11:52;;;;;;;3.60;3.30;;;16.20;93.70;;;;;;6246455;23;20653;-45
2022/08/21 05:14:18;;;;;;;3.47;3.17;;;16.30;93.80;;;;;;6244963;23;20399;-48
2022/08/21 05:16:44;;;;;;;4.40;3.10;;;16.40;93.80;;;;;;6246483;23;20460;-44
2022/08/21 05:19:10;;;;;;;4.53;3.20;;;16.40;93.70;;;;;;6246736;23;20451;-45
2022/08/21 05:21:37;;;;;;;5.30;3.80;;;16.40;93.60;;;;;;6246448;23;20222;-45
2022/08/21 05:24:03;;;;;;;3.67;2.80;;;16.50;93.50;;;;;;6245527;23;20353;-44
2022/08/21 05:26:29;;;;;;;5.10;3.57;;;16.60;93.40;;;;;;6246308;23;20430;-45
2022/08/21 05:28:55;;;;;;;2.97;2.67;;;16.60;93.30;;;;;;6246662;23;20387;-44
2022/08/21 05:31:21;;;;;;;3.93;3.50;;;16.70;93.30;;;;;;6248425;23;20373;-43
2022/08/21 05:33:46;;;;;;;3.87;3.50;;;16.70;93.30;;;;;;6248479;23;20208;-44
2022/08/21 05:36:12;;;;;;;3.70;3.20;;;16.70;93.20;;;;;;6248489;23;20134;-44
2022/08/21 05:38:37;;;;;;;4.27;3.53;;;16.80;93.10;;;;;;6248798;23;20315;-44
2022/08/21 05:41:03;;;;;;;4.03;3.43;;;16.90;93.10;;;;;;6248659;23;20131;-44
2022/08/21 05:43:29;;;;;;;3.93;3.20;;;16.90;93.00;;;;;;6247988;23;20162;-48
2022/08/21 05:45:54;;;;;;;5.03;3.47;;;17.00;92.90;;;;;;6247730;23;20135;-44
2022/08/21 05:48:22;;;;;;;3.43;3.13;;;17.00;92.80;;;;;;6247918;23;20378;-44
2022/08/21 05:50:49;;;;;;;3.77;3.23;;;17.10;92.80;;;;;;6247227;23;20720;-44
2022/08/21 05:53:16;;;;;;;4.60;3.63;;;17.20;92.70;;;;;;6248150;23;20366;-44
2022/08/21 05:55:42;;;;;;;4.20;3.70;;;17.30;92.60;;;;;;6249548;22;20741;-43
2022/08/21 05:58:08;;;;;;;4.00;3.60;;;17.40;92.50;;;;;;6249005;23;20770;-46
2022/08/21 06:00:34;;;;;;;5.00;3.60;;;17.40;92.40;;;;;;6247870;23;20446;-45
2022/08/21 06:03:00;;;;;;;4.47;3.57;;;17.50;92.30;;;;;;6249270;23;20135;-44
2022/08/21 06:05:26;;;;;;;4.30;3.50;;;17.60;92.20;;;;;;6249831;23;20392;-47
2022/08/21 06:07:52;;;;;;;3.80;3.50;;;17.70;92.00;;;;;;6248404;23;20789;-43
2022/08/21 06:10:18;;;;;;;8.27;4.07;;;17.80;91.90;;;;;;6248495;23;20394;-47
2022/08/21 06:12:43;;;;;;;5.50;4.70;;;17.80;91.70;;;;;;6247175;23;20402;-42
2022/08/21 06:15:09;;;;;;;7.50;4.33;;;17.90;91.70;;;;;;6246110;23;20151;-45
2022/08/21 06:17:35;;;;;;;6.33;4.43;;;18.00;91.70;;;;;;6247927;23;20200;-45
2022/08/21 06:20:01;;;;;;;8.20;4.80;;;18.00;91.60;;;;;;6248446;23;20263;-44
2022/08/21 06:22:26;;;;;;;3.90;3.60;;;18.10;91.50;;;;;;6247236;23;20197;-44
2022/08/21 06:24:52;;;;;;;5.83;3.50;;;18.30;91.40;;;;;;6247550;23;20385;-46
2022/08/21 06:27:18;;;;;;;5.63;5.13;;;18.50;91.10;;;;;;6248212;23;20131;-44
2022/08/21 06:29:44;;;;;;;4.53;3.73;;;18.60;90.80;;;;;;6249004;23;20200;-45
2022/08/21 06:32:13;;;;;;;4.77;4.37;;;18.70;90.80;;;;;;6247215;23;20188;-44
2022/08/21 06:34:40;;;;;;;6.90;4.97;;;18.80;90.40;;;;;;6247765;23;20687;-44
2022/08/21 06:37:06;;;;;;;7.90;4.40;;;18.70;90.10;;;;;;6248092;23;20844;-45
2022/08/21 06:39:33;;;;;;;6.60;4.27;;;18.70;90.30;;;;;;6247583;23;20428;-44
2022/08/21 06:41:59;;;;;;;6.60;4.70;;;18.70;90.40;;;;;;6247486;23;20145;-47
2022/08/21 06:44:25;;;;;;;4.27;3.87;;;18.70;90.40;;;;;;6248455;23;20400;-45
2022/08/21 06:46:51;;;;;;;4.67;3.90;;;18.90;90.60;;;;;;6247776;23;20479;-45
2022/08/21 06:49:16;;;;;;;3.87;3.17;;;19.10;90.50;;;;;;6248473;23;20388;-46
2022/08/21 06:51:42;;;;;;;4.90;3.67;;;19.30;90.30;;;;;;6246108;23;20138;-46
2022/08/21 06:54:08;;;;;;;6.90;4.23;;;19.50;89.60;;;;;;6244721;23;20434;-45
2022/08/21 06:56:36;;;;;;;6.93;4.20;;;19.80;88.50;;;;;;6245511;23;20134;-44
2022/08/21 06:59:02;;;;;;;5.50;3.90;;;20.10;88.60;;;;;;6245842;23;20425;-44
2022/08/21 07:01:28;;;;;;;4.27;3.90;;;20.30;87.00;;;;;;6245787;23;20370;-44
2022/08/21 07:03:53;;;;;;;5.27;3.57;;;20.50;86.40;;;;;;6245797;23;20421;-45
2022/08/21 07:06:19;;;;;;;5.33;4.13;;;20.70;85.80;;;;;;6245315;23;20136;-46
2022/08/21 07:08:44;;;;;;;7.77;4.30;;;20.90;84.60;;;;;;6247243;23;20171;-48
2022/08/21 07:11:18;;;;;;;4.57;3.83;;;21.10;83.70;;;;;;6246377;23;20135;-45
2022/08/21 07:13:43;;;;;;;5.60;3.73;;;21.30;81.70;;;;;;6245871;23;20154;-50
2022/08/21 07:16:09;;;;;;;5.00;4.30;;;21.50;81.60;;;;;;6247032;23;20643;-45
2022/08/21 07:18:35;;;;;;;6.83;4.30;;;21.70;81.00;;;;;;6246166;23;20454;-47
2022/08/21 07:21:03;;;;;;;5.50;4.47;;;21.90;80.40;;;;;;6247760;23;20139;-44
2022/08/21 07:23:32;;;;;;;5.87;4.30;;;22.10;79.50;;;;;;6246666;23;20805;-45
2022/08/21 07:25:59;;;;;;;7.40;4.73;;;22.30;78.40;;;;;;6248626;23;20485;-45
2022/08/21 07:28:24;;;;;;;5.70;4.73;;;22.50;77.10;;;;;;6248291;23;20403;-46
2022/08/21 07:30:51;;;;;;;6.10;4.40;;;22.70;76.30;;;;;;6247450;23;20385;-46
2022/08/21 07:33:17;;;;;;;7.70;4.60;;;22.80;75.10;;;;;;6245025;23;20512;-48
2022/08/21 07:35:43;;;;;;;8.03;5.20;;;23.00;73.90;;;;;;6246061;23;20388;-46
2022/08/21 07:38:10;;;;;;;7.80;5.57;;;23.20;73.20;;;;;;6246703;23;20148;-44
2022/08/21 07:40:36;;;;;;;6.30;4.63;;;23.30;72.50;;;;;;6245421;23;20491;-45
2022/08/21 07:43:02;;;;;;;7.60;4.30;;;23.40;72.30;;;;;;6244965;23;20352;-47
2022/08/21 07:45:28;;;;;;;7.43;4.93;;;23.60;71.00;;;;;;6244371;23;20164;-44
2022/08/21 07:47:53;;;;;;;6.70;4.93;;;23.80;69.90;;;;;;6245555;23;20373;-46
2022/08/21 07:50:19;;;;;;;7.33;5.00;;;24.10;69.10;;;;;;6246007;23;20543;-47
2022/08/21 07:52:46;;;;;;;6.40;5.07;;;24.30;66.90;;;;;;6243677;23;20141;-46
2022/08/21 07:55:14;;;;;;;8.70;4.97;;;24.50;65.80;;;;;;6244247;23;20382;-47
2022/08/21 07:57:40;;;;;;;8.07;5.13;;;24.30;63.80;;;;;;6243840;23;20357;-47
2022/08/21 08:00:09;;;;;;;6.83;5.00;;;24.30;62.80;;;;;;6217336;23;20847;-44
2022/08/21 08:02:35;;;;;;;5.00;3.90;;;24.40;62.50;;;;;;6243282;23;20365;-45
2022/08/21 08:05:03;;;;;;;5.30;4.50;;;24.40;63.40;;;;;;6245193;23;20389;-45
2022/08/21 08:07:29;;;;;;;6.50;5.20;;;24.70;63.30;;;;;;6246816;23;20132;-44
2022/08/21 08:09:54;;;;;;;5.73;4.60;;;24.90;61.70;;;;;;6245077;23;20891;-46
2022/08/21 08:12:20;;;;;;;8.27;4.63;;;25.10;60.80;;;;;;6247040;23;20202;-47
2022/08/21 08:14:46;;;;;;;5.67;4.90;;;25.40;59.30;;;;;;6247873;23;20156;-44
2022/08/21 08:17:13;;;;;;;6.50;4.57;;;25.50;59.00;;;;;;6248539;23;20136;-45
2022/08/21 08:19:39;;;;;;;5.63;4.30;;;25.50;57.80;;;;;;6246557;23;20213;-46
2022/08/21 08:22:15;;;;;;;6.90;5.33;;;25.60;56.90;;;;;;6245778;23;20415;-47
2022/08/21 08:24:41;;;;;;;5.87;4.40;;;25.50;57.10;;;;;;6216651;23;20643;-47
2022/08/21 08:27:06;;;;;;;6.20;4.57;;;25.60;56.40;;;;;;6246088;23;20448;-44
2022/08/21 08:29:32;;;;;;;5.07;4.40;;;25.50;55.80;;;;;;6246497;23;20157;-45
2022/08/21 08:31:58;;;;;;;5.77;4.53;;;25.20;55.80;;;;;;6246099;23;20141;-45
2022/08/21 08:34:24;;;;;;;8.10;4.80;;;25.20;55.50;;;;;;6246025;23;20203;-50
2022/08/21 08:36:50;;;;;;;8.70;4.30;;;25.20;54.70;;;;;;6246527;23;20395;-45
2022/08/21 08:39:16;;;;;;;6.73;4.40;;;25.30;54.70;;;;;;6248468;23;20450;-44
2022/08/21 08:41:45;;;;;;;6.47;5.10;;;25.20;53.30;;;;;;6247405;23;20159;-45
2022/08/21 08:44:10;;;;;;;6.00;4.60;;;25.50;53.20;;;;;;6249258;23;20384;-49
2022/08/21 08:46:46;;;;;;;4.87;4.37;;;25.70;53.20;;;;;;6248090;23;20809;-46
2022/08/21 08:49:48;;;;;;;6.13;4.40;;;26.10;53.10;;;;;;6246718;23;20368;-46
2022/08/21 08:52:30;;;;;;;5.30;4.30;;;26.50;52.20;;;;;;6249274;23;20485;-45
2022/08/21 08:55:09;;;;;;;5.83;4.17;;;27.10;52.10;;;;;;6248951;23;20371;-46
2022/08/21 08:57:36;;;;;;;6.70;4.50;;;27.60;50.50;;;;;;6220414;23;20858;-49
2022/08/21 09:00:10;;;;;;;5.60;4.23;;;28.00;50.20;;;;;;6218500;23;20420;-46
2022/08/21 09:02:38;;;;;;;10.67;5.50;;;28.40;49.20;;;;;;6247038;23;20368;-46
2022/08/21 09:05:05;;;;;;;7.47;4.80;;;28.20;48.40;;;;;;6246613;23;20390;-46
2022/08/21 09:07:47;;;;;;;5.23;4.27;;;28.40;48.00;;;;;;6247922;23;20466;-48
2022/08/21 09:10:16;;;;;;;6.00;4.20;;;28.50;48.20;;;;;;6222574;23;20380;-51
2022/08/21 09:13:06;;;;;;;6.27;4.50;;;28.40;47.20;;;;;;6246869;23;20336;-48
2022/08/21 09:15:39;;;;;;;4.93;4.40;;;27.60;47.50;;;;;;6249119;23;20378;-44
2022/08/21 09:18:06;;;;;;;4.80;3.50;;;27.20;48.00;;;;;;6247345;23;20365;-45
2022/08/21 09:20:56;;;;;;;5.30;4.07;;;27.50;48.00;;;;;;6248199;22;20407;-48
2022/08/21 09:24:01;;;;;;;4.97;3.57;;;28.20;47.20;;;;;;6248961;23;20448;-48
2022/08/21 09:27:09;;;;;;;4.60;4.20;;;27.90;46.60;;;;;;6156221;23;20362;-46
2022/08/21 09:29:38;;;;;;;3.90;3.50;;;28.90;46.40;;;;;;6232929;23;20395;-48
2022/08/21 09:32:19;;;;;;;4.70;3.83;;;29.60;44.90;;;;;;6246879;23;20365;-47
2022/08/21 09:35:13;;;;;;;4.73;4.10;;;30.20;43.90;;;;;;6247886;23;20431;-46
2022/08/21 09:37:57;;;;;;;5.40;3.70;;;30.00;42.50;;;;;;6247031;23;20450;-47
2022/08/21 09:40:35;;;;;;;6.27;4.13;;;30.20;42.80;;;;;;6247186;23;20395;-50
2022/08/21 09:43:22;;;;;;;5.83;3.80;;;30.80;42.00;;;;;;6246808;23;20390;-48
2022/08/21 09:45:49;;;;;;;5.43;4.00;;;31.50;40.70;;;;;;6245191;23;20343;-50
2022/08/21 09:48:21;;;;;;;7.00;3.87;;;31.90;38.60;;;;;;6247363;23;20371;-47
2022/08/21 09:50:48;;;;;;;5.63;4.03;;;31.90;38.90;;;;;;6247087;23;20927;-47
2022/08/21 09:53:20;;;;;;;5.83;4.20;;;31.30;38.20;;;;;;6246086;23;20458;-51
2022/08/21 09:58:45;;;;;;;8.47;4.00;;;31.00;38.00;;;;;;6244512;23;20394;-48
2022/08/21 10:01:20;;;;;;;6.37;4.10;;;30.80;38.10;;;;;;6243800;23;20637;-48
2022/08/21 10:03:46;;;;;;;4.73;3.67;;;30.90;38.20;;;;;;6247203;23;20395;-46
2022/08/21 10:06:26;;;;;;;4.33;3.40;;;31.10;38.20;;;;;;6245818;23;20327;-47
2022/08/21 10:09:08;;;;;;;4.30;3.77;;;31.20;37.70;;;;;;6246042;23;20609;-49
2022/08/21 10:11:34;;;;;;;5.33;4.50;;;30.40;38.00;;;;;;6246124;23;20372;-47
2022/08/21 10:14:14;;;;;;;6.13;3.37;;;30.00;38.40;;;;;;6247397;23;20420;-47
2022/08/21 10:16:39;;;;;;;5.63;4.50;;;29.90;39.00;;;;;;6246774;23;20402;-47
2022/08/21 10:19:11;;;;;;;4.90;4.30;;;29.60;38.90;;;;;;6247795;23;20403;-46
2022/08/21 10:21:59;;;;;;;4.40;3.40;;;29.90;39.70;;;;;;6246988;23;20146;-47
2022/08/21 10:24:52;;;;;;;4.27;3.60;;;30.00;38.90;;;;;;6246424;23;20320;-50
2022/08/21 10:28:02;;;;;;;4.37;3.97;;;30.70;38.20;;;;;;6246590;23;20705;-48
2022/08/21 10:30:40;;;;;;;5.10;4.50;;;30.30;38.20;;;;;;6224332;22;20381;-46
2022/08/21 10:33:12;;;;;;;4.70;4.00;;;29.80;38.40;;;;;;6247667;23;20353;-46
2022/08/21 10:36:00;;;;;;;5.17;4.07;;;29.10;39.60;;;;;;6247773;23;20340;-46
2022/08/21 10:38:41;;;;;;;4.50;4.00;;;28.70;39.70;;;;;;6247135;23;20424;-48
2022/08/21 10:41:34;;;;;;;5.93;5.00;;;28.10;40.70;;;;;;6247945;23;20396;-47
2022/08/21 10:44:28;;;;;;;6.90;4.47;;;28.50;40.80;;;;;;6247946;23;20374;-50
2022/08/21 10:46:57;;;;;;;5.20;3.70;;;28.90;40.30;;;;;;6247181;23;20355;-45
2022/08/21 10:49:34;;;;;;;4.67;4.20;;;29.50;40.90;;;;;;6246073;23;20453;-45
2022/08/21 10:52:22;;;;;;;5.37;4.30;;;29.60;39.30;;;;;;6247916;23;20380;-46
2022/08/21 10:54:55;;;;;;;4.87;4.47;;;30.20;39.20;;;;;;6246536;23;20362;-50
2022/08/21 10:57:54;;;;;;;4.77;3.93;;;31.30;39.70;;;;;;6247364;23;20644;-44
2022/08/21 11:00:22;;;;;;;6.73;4.20;;;32.60;38.80;;;;;;6246993;23;20820;-46
2022/08/21 11:03:07;;;;;;;4.93;4.40;;;33.60;37.40;;;;;;6247412;23;20366;-47
2022/08/21 11:05:50;;;;;;;4.83;4.20;;;34.50;36.70;;;;;;6247125;23;20334;-48
2022/08/21 11:08:30;;;;;;;6.00;4.47;;;35.20;34.40;;;;;;6247270;23;20822;-49
2022/08/21 11:11:09;;;;;;;3.60;3.30;;;35.20;34.80;;;;;;6246301;23;20462;-47
2022/08/21 11:13:42;;;;;;;4.33;3.93;;;34.60;34.90;;;;;;6245436;23;20680;-51
2022/08/21 11:16:16;;;;;;;4.87;4.03;;;34.40;35.30;;;;;;6247064;23;20385;-52
2022/08/21 11:19:20;;;;;;;4.83;4.10;;;34.20;35.00;;;;;;6244151;23;20378;-49
2022/08/21 11:21:57;;;;;;;4.53;3.60;;;33.40;35.40;;;;;;6150981;23;20425;-48
2022/08/21 11:24:35;;;;;;;4.80;4.33;;;32.60;35.80;;;;;;6234188;23;20362;-47
2022/08/21 11:27:14;;;;;;;5.00;3.80;;;32.90;36.60;;;;;;6247233;23;20471;-49
2022/08/21 11:29:42;;;;;;;5.07;4.27;;;33.90;35.00;;;;;;6245579;23;20355;-46
2022/08/21 11:32:31;;;;;;;4.70;4.17;;;34.60;35.10;;;;;;6242448;23;20379;-47
2022/08/21 11:35:31;;;;;;;4.87;4.37;;;34.90;34.20;;;;;;6218471;23;20735;-48
2022/08/21 11:37:57;;;;;;;4.90;4.40;;;34.60;34.40;;;;;;6246430;23;20689;-47
2022/08/21 11:40:38;;;;;;;4.63;4.13;;;34.00;35.20;;;;;;6244746;23;20399;-46
2022/08/21 11:43:29;;;;;;;6.43;4.43;;;33.60;35.00;;;;;;6246609;22;20362;-47
2022/08/21 11:45:59;;;;;;;6.50;4.77;;;33.20;35.10;;;;;;6247442;23;20602;-46
2022/08/21 11:48:40;;;;;;;5.17;4.60;;;32.60;35.50;;;;;;6244718;23;20437;-47
2022/08/21 11:51:21;;;;;;;5.43;4.53;;;31.70;36.70;;;;;;6246898;23;20323;-50
2022/08/21 11:53:54;;;;;;;4.70;3.87;;;31.00;37.80;;;;;;6245500;23;20416;-45
2022/08/21 11:56:32;;;;;;;5.53;4.60;;;30.60;37.80;;;;;;6246498;23;20327;-48
2022/08/21 11:59:06;;;;;;;4.87;4.47;;;30.30;38.70;;;;;;6247050;23;20574;-47
2022/08/21 12:01:40;;;;;;;6.10;4.43;;;30.30;38.90;;;;;;6244721;23;20788;-45
2022/08/21 12:04:31;;;;;;;4.67;4.03;;;30.20;38.90;;;;;;6244311;23;20468;-46
2022/08/21 12:07:14;;;;;;;4.87;4.20;;;29.90;39.60;;;;;;6234515;23;20638;-46
2022/08/21 12:09:40;;;;;;;4.23;3.87;;;29.70;39.70;;;;;;6245297;23;20401;-46
2022/08/21 12:12:30;;;;;;;6.23;5.03;;;29.70;40.30;;;;;;6246901;23;20647;-48
2022/08/21 12:15:17;;;;;;;4.90;4.40;;;29.70;39.00;;;;;;6244060;23;20677;-49
2022/08/21 12:17:55;;;;;;;5.67;4.20;;;29.20;39.30;;;;;;6241044;23;20531;-48
2022/08/21 12:20:21;;;;;;;5.47;4.87;;;28.70;39.80;;;;;;6245195;23;20512;-47
2022/08/21 12:23:03;;;;;;;4.37;3.97;;;28.40;40.10;;;;;;6247523;23;20359;-48
2022/08/21 12:25:47;;;;;;;4.40;4.00;;;28.10;40.70;;;;;;6248846;23;20293;-46
2022/08/21 12:28:21;;;;;;;4.63;4.23;;;27.80;41.30;;;;;;6246048;23;20353;-46
2022/08/21 12:30:47;;;;;;;5.03;4.63;;;27.60;41.40;;;;;;6249157;23;20430;-45
2022/08/21 12:33:29;;;;;;;5.97;4.43;;;27.60;41.50;;;;;;6244304;23;20463;-48
2022/08/21 12:36:09;;;;;;;5.07;4.57;;;27.80;42.50;;;;;;6246486;23;20423;-45
2022/08/21 12:39:10;;;;;;;6.63;4.27;;;28.90;42.90;;;;;;6220731;23;20424;-46
2022/08/21 12:42:03;;;;;;;4.50;4.10;;;30.30;41.50;;;;;;6247346;23;20659;-47
2022/08/21 12:44:44;;;;;;;6.10;4.50;;;31.80;39.10;;;;;;6247406;23;20780;-47
2022/08/21 12:47:17;;;;;;;4.70;4.20;;;32.80;37.40;;;;;;6246724;23;20412;-46
2022/08/21 12:50:12;;;;;;;4.93;4.43;;;33.30;37.00;;;;;;6245619;23;20402;-46
2022/08/21 12:52:48;;;;;;;5.17;3.70;;;33.70;36.60;;;;;;6247360;23;20411;-46
2022/08/21 12:55:16;;;;;;;4.50;4.10;;;34.00;36.20;;;;;;6248127;23;20481;-45
2022/08/21 12:57:42;;;;;;;5.50;4.80;;;34.30;35.60;;;;;;6248942;23;20351;-47
2022/08/21 13:00:14;;;;;;;4.30;3.90;;;35.20;35.90;;;;;;6247389;23;20851;-49
2022/08/21 13:02:46;;;;;;;4.50;4.10;;;35.50;34.40;;;;;;6249178;23;20218;-47
2022/08/21 13:05:15;;;;;;;4.93;4.07;;;35.40;33.50;;;;;;6248676;23;20369;-49
2022/08/21 13:07:46;;;;;;;4.80;4.23;;;35.00;34.00;;;;;;6247470;23;20409;-51